sensor_id;sensor_type;location;lat;lon;timestamp;P1;durP1;ratioP1;P2;durP2;ratioP2
52838;SDS011;39219;53.678;9.856;2023-02-01T00:00:09;19.98;;;3.70;;
52838;SDS011;39219;53.678;9.856;2023-02-01T00:02:35;28.17;;;4.40;;
52838;SDS011;39219;53.678;9.856;2023-02-01T00:05:05;18.27;;;3.83;;
52838;SDS011;39219;53.678;9.856;2023-02-01T00:07:32;23.83;;;4.25;;
52838;SDS011;39219;53.678;9.856;2023-02-01T00:09:59;20.63;;;3.28;;
52838;SDS011;39219;53.678;9.856;2023-02-01T00:12:25;24.15;;;4.40;;
52838;SDS011;39219;53.678;9.856;2023-02-01T00:14:51;28.42;;;4.30;;
52838;SDS011;39219;53.678;9.856;2023-02-01T00:17:17;23.63;;;4.32;;
52838;SDS011;39219;53.678;9.856;2023-02-01T00:19:44;26.08;;;4.68;;
52838;SDS011;39219;53.678;9.856;2023-02-01T00:22:10;23.85;;;4.85;;
52838;SDS011;39219;53.678;9.856;2023-02-01T00:24:37;31.95;;;4.85;;
52838;SDS011;39219;53.678;9.856;2023-02-01T00:27:04;28.10;;;4.63;;
52838;SDS011;39219;53.678;9.856;2023-02-01T00:29:30;27.40;;;4.35;;
52838;SDS011;39219;53.678;9.856;2023-02-01T00:31:56;27.65;;;4.45;;
52838;SDS011;39219;53.678;9.856;2023-02-01T00:34:22;27.05;;;4.53;;
52838;SDS011;39219;53.678;9.856;2023-02-01T00:36:49;29.15;;;4.65;;
52838;SDS011;39219;53.678;9.856;2023-02-01T00:39:15;29.73;;;4.60;;
52838;SDS011;39219;53.678;9.856;2023-02-01T00:41:43;19.92;;;3.80;;
52838;SDS011;39219;53.678;9.856;2023-02-01T00:44:09;27.58;;;4.82;;
52838;SDS011;39219;53.678;9.856;2023-02-01T00:46:36;26.98;;;4.68;;
52838;SDS011;39219;53.678;9.856;2023-02-01T00:49:02;27.42;;;4.47;;
52838;SDS011;39219;53.678;9.856;2023-02-01T00:51:29;31.20;;;4.53;;
52838;SDS011;39219;53.678;9.856;2023-02-01T00:53:55;30.13;;;4.63;;
52838;SDS011;39219;53.678;9.856;2023-02-01T00:56:22;34.35;;;5.22;;
52838;SDS011;39219;53.678;9.856;2023-02-01T00:58:49;20.13;;;3.92;;
52838;SDS011;39219;53.678;9.856;2023-02-01T01:01:17;28.73;;;4.50;;
52838;SDS011;39219;53.678;9.856;2023-02-01T01:03:45;28.58;;;4.82;;
52838;SDS011;39219;53.678;9.856;2023-02-01T01:06:12;34.63;;;5.40;;
52838;SDS011;39219;53.678;9.856;2023-02-01T01:08:39;30.88;;;4.60;;
52838;SDS011;39219;53.678;9.856;2023-02-01T01:11:06;28.25;;;5.43;;
52838;SDS011;39219;53.678;9.856;2023-02-01T01:13:32;30.83;;;5.53;;
52838;SDS011;39219;53.678;9.856;2023-02-01T01:16:01;30.98;;;4.75;;
52838;SDS011;39219;53.678;9.856;2023-02-01T01:18:28;27.90;;;4.97;;
52838;SDS011;39219;53.678;9.856;2023-02-01T01:20:55;26.38;;;4.78;;
52838;SDS011;39219;53.678;9.856;2023-02-01T01:23:21;36.08;;;5.43;;
52838;SDS011;39219;53.678;9.856;2023-02-01T01:25:47;24.35;;;4.03;;
52838;SDS011;39219;53.678;9.856;2023-02-01T01:28:14;29.70;;;5.10;;
52838;SDS011;39219;53.678;9.856;2023-02-01T01:30:40;31.60;;;4.75;;
52838;SDS011;39219;53.678;9.856;2023-02-01T01:33:08;27.20;;;4.93;;
52838;SDS011;39219;53.678;9.856;2023-02-01T01:35:34;26.38;;;4.88;;
52838;SDS011;39219;53.678;9.856;2023-02-01T01:38:01;26.20;;;4.85;;
52838;SDS011;39219;53.678;9.856;2023-02-01T01:40:28;28.67;;;5.10;;
52838;SDS011;39219;53.678;9.856;2023-02-01T01:42:55;29.90;;;4.18;;
52838;SDS011;39219;53.678;9.856;2023-02-01T01:45:23;27.15;;;4.63;;
52838;SDS011;39219;53.678;9.856;2023-02-01T01:47:51;26.92;;;4.63;;
52838;SDS011;39219;53.678;9.856;2023-02-01T01:50:20;29.35;;;5.13;;
52838;SDS011;39219;53.678;9.856;2023-02-01T01:52:49;27.65;;;5.35;;
52838;SDS011;39219;53.678;9.856;2023-02-01T01:55:16;29.98;;;5.03;;
52838;SDS011;39219;53.678;9.856;2023-02-01T01:57:44;27.73;;;4.50;;
52838;SDS011;39219;53.678;9.856;2023-02-01T02:00:13;32.92;;;4.85;;
52838;SDS011;39219;53.678;9.856;2023-02-01T02:02:40;29.55;;;5.10;;
52838;SDS011;39219;53.678;9.856;2023-02-01T02:05:08;29.95;;;4.88;;
52838;SDS011;39219;53.678;9.856;2023-02-01T02:07:36;30.75;;;5.10;;
52838;SDS011;39219;53.678;9.856;2023-02-01T02:10:03;38.60;;;6.35;;
52838;SDS011;39219;53.678;9.856;2023-02-01T02:12:30;28.38;;;4.68;;
52838;SDS011;39219;53.678;9.856;2023-02-01T02:14:57;29.05;;;4.70;;
52838;SDS011;39219;53.678;9.856;2023-02-01T02:17:26;35.60;;;5.40;;
52838;SDS011;39219;53.678;9.856;2023-02-01T02:22:57;28.92;;;5.20;;
52838;SDS011;39219;53.678;9.856;2023-02-01T02:25:40;30.38;;;5.38;;
52838;SDS011;39219;53.678;9.856;2023-02-01T02:28:09;31.88;;;5.28;;
52838;SDS011;39219;53.678;9.856;2023-02-01T02:30:51;31.15;;;4.80;;
52838;SDS011;39219;53.678;9.856;2023-02-01T02:33:42;31.55;;;5.28;;
52838;SDS011;39219;53.678;9.856;2023-02-01T02:36:13;27.10;;;5.20;;
52838;SDS011;39219;53.678;9.856;2023-02-01T02:38:41;32.40;;;4.68;;
52838;SDS011;39219;53.678;9.856;2023-02-01T02:41:12;28.40;;;4.57;;
52838;SDS011;39219;53.678;9.856;2023-02-01T02:44:00;24.88;;;4.57;;
52838;SDS011;39219;53.678;9.856;2023-02-01T02:46:49;29.63;;;4.70;;
52838;SDS011;39219;53.678;9.856;2023-02-01T02:49:36;27.20;;;4.88;;
52838;SDS011;39219;53.678;9.856;2023-02-01T02:52:06;27.27;;;4.90;;
52838;SDS011;39219;53.678;9.856;2023-02-01T02:55:03;29.13;;;4.32;;
52838;SDS011;39219;53.678;9.856;2023-02-01T02:57:30;22.40;;;4.10;;
52838;SDS011;39219;53.678;9.856;2023-02-01T03:00:17;26.30;;;4.88;;
52838;SDS011;39219;53.678;9.856;2023-02-01T03:05:47;28.98;;;5.00;;
52838;SDS011;39219;53.678;9.856;2023-02-01T03:08:15;25.75;;;4.65;;
52838;SDS011;39219;53.678;9.856;2023-02-01T03:10:49;26.52;;;4.30;;
52838;SDS011;39219;53.678;9.856;2023-02-01T03:13:19;26.42;;;4.22;;
52838;SDS011;39219;53.678;9.856;2023-02-01T03:15:50;27.17;;;4.18;;
52838;SDS011;39219;53.678;9.856;2023-02-01T03:18:18;28.08;;;5.05;;
52838;SDS011;39219;53.678;9.856;2023-02-01T03:20:48;24.38;;;4.35;;
52838;SDS011;39219;53.678;9.856;2023-02-01T03:23:17;27.00;;;4.32;;
52838;SDS011;39219;53.678;9.856;2023-02-01T03:25:46;25.70;;;4.60;;
52838;SDS011;39219;53.678;9.856;2023-02-01T03:28:13;28.20;;;5.13;;
52838;SDS011;39219;53.678;9.856;2023-02-01T03:30:41;24.98;;;4.25;;
52838;SDS011;39219;53.678;9.856;2023-02-01T03:33:09;25.23;;;4.20;;
52838;SDS011;39219;53.678;9.856;2023-02-01T03:35:40;24.10;;;3.92;;
52838;SDS011;39219;53.678;9.856;2023-02-01T03:38:10;25.40;;;4.10;;
52838;SDS011;39219;53.678;9.856;2023-02-01T03:40:38;19.38;;;3.58;;
52838;SDS011;39219;53.678;9.856;2023-02-01T03:43:06;26.38;;;3.80;;
52838;SDS011;39219;53.678;9.856;2023-02-01T03:45:36;23.98;;;3.63;;
52838;SDS011;39219;53.678;9.856;2023-02-01T03:48:05;21.55;;;4.15;;
52838;SDS011;39219;53.678;9.856;2023-02-01T03:50:32;19.58;;;3.60;;
52838;SDS011;39219;53.678;9.856;2023-02-01T03:52:59;21.50;;;3.88;;
52838;SDS011;39219;53.678;9.856;2023-02-01T03:55:28;23.83;;;4.20;;
52838;SDS011;39219;53.678;9.856;2023-02-01T03:57:57;23.95;;;3.95;;
52838;SDS011;39219;53.678;9.856;2023-02-01T04:00:25;27.42;;;4.50;;
52838;SDS011;39219;53.678;9.856;2023-02-01T04:02:52;28.33;;;4.43;;
52838;SDS011;39219;53.678;9.856;2023-02-01T04:05:18;24.15;;;4.65;;
52838;SDS011;39219;53.678;9.856;2023-02-01T04:07:44;24.67;;;4.05;;
52838;SDS011;39219;53.678;9.856;2023-02-01T04:10:11;24.70;;;4.15;;
52838;SDS011;39219;53.678;9.856;2023-02-01T04:12:39;13.95;;;3.17;;
52838;SDS011;39219;53.678;9.856;2023-02-01T04:15:06;21.50;;;3.40;;
52838;SDS011;39219;53.678;9.856;2023-02-01T04:17:32;23.55;;;3.75;;
52838;SDS011;39219;53.678;9.856;2023-02-01T04:19:58;21.75;;;3.53;;
52838;SDS011;39219;53.678;9.856;2023-02-01T04:22:25;27.40;;;4.10;;
52838;SDS011;39219;53.678;9.856;2023-02-01T04:24:51;26.50;;;4.05;;
52838;SDS011;39219;53.678;9.856;2023-02-01T04:27:17;24.38;;;4.65;;
52838;SDS011;39219;53.678;9.856;2023-02-01T04:29:45;23.27;;;4.15;;
52838;SDS011;39219;53.678;9.856;2023-02-01T04:32:11;27.33;;;4.45;;
52838;SDS011;39219;53.678;9.856;2023-02-01T04:34:37;24.60;;;4.82;;
52838;SDS011;39219;53.678;9.856;2023-02-01T04:37:04;20.58;;;4.45;;
52838;SDS011;39219;53.678;9.856;2023-02-01T04:39:30;19.45;;;3.70;;
52838;SDS011;39219;53.678;9.856;2023-02-01T04:41:56;18.58;;;3.65;;
52838;SDS011;39219;53.678;9.856;2023-02-01T04:44:22;18.77;;;3.45;;
52838;SDS011;39219;53.678;9.856;2023-02-01T04:46:50;17.75;;;3.60;;
52838;SDS011;39219;53.678;9.856;2023-02-01T04:49:16;15.70;;;3.55;;
52838;SDS011;39219;53.678;9.856;2023-02-01T04:51:43;16.17;;;2.90;;
52838;SDS011;39219;53.678;9.856;2023-02-01T04:54:09;19.15;;;3.15;;
52838;SDS011;39219;53.678;9.856;2023-02-01T04:56:36;15.23;;;2.67;;
52838;SDS011;39219;53.678;9.856;2023-02-01T04:59:03;10.80;;;2.75;;
52838;SDS011;39219;53.678;9.856;2023-02-01T05:01:29;13.25;;;3.15;;
52838;SDS011;39219;53.678;9.856;2023-02-01T05:03:56;14.90;;;2.80;;
52838;SDS011;39219;53.678;9.856;2023-02-01T05:06:23;15.45;;;2.85;;
52838;SDS011;39219;53.678;9.856;2023-02-01T05:08:49;12.55;;;2.47;;
52838;SDS011;39219;53.678;9.856;2023-02-01T05:11:15;11.05;;;2.15;;
52838;SDS011;39219;53.678;9.856;2023-02-01T05:13:56;8.27;;;1.45;;
52838;SDS011;39219;53.678;9.856;2023-02-01T05:16:22;7.55;;;1.48;;
52838;SDS011;39219;53.678;9.856;2023-02-01T05:18:48;9.80;;;1.60;;
52838;SDS011;39219;53.678;9.856;2023-02-01T05:21:16;6.35;;;1.38;;
52838;SDS011;39219;53.678;9.856;2023-02-01T05:23:42;7.85;;;1.65;;
52838;SDS011;39219;53.678;9.856;2023-02-01T05:26:26;3.15;;;1.15;;
52838;SDS011;39219;53.678;9.856;2023-02-01T05:28:52;3.85;;;1.10;;
52838;SDS011;39219;53.678;9.856;2023-02-01T05:31:19;4.50;;;1.27;;
52838;SDS011;39219;53.678;9.856;2023-02-01T05:33:45;4.38;;;1.25;;
52838;SDS011;39219;53.678;9.856;2023-02-01T05:36:11;4.78;;;1.20;;
52838;SDS011;39219;53.678;9.856;2023-02-01T05:38:39;7.63;;;1.25;;
52838;SDS011;39219;53.678;9.856;2023-02-01T05:41:06;5.63;;;1.20;;
52838;SDS011;39219;53.678;9.856;2023-02-01T05:43:32;4.82;;;1.45;;
52838;SDS011;39219;53.678;9.856;2023-02-01T05:45:58;9.30;;;1.55;;
52838;SDS011;39219;53.678;9.856;2023-02-01T05:48:25;8.18;;;1.60;;
52838;SDS011;39219;53.678;9.856;2023-02-01T05:50:51;6.45;;;1.38;;
52838;SDS011;39219;53.678;9.856;2023-02-01T05:53:17;4.90;;;1.20;;
52838;SDS011;39219;53.678;9.856;2023-02-01T05:55:45;4.50;;;1.10;;
52838;SDS011;39219;53.678;9.856;2023-02-01T05:58:11;10.60;;;1.90;;
52838;SDS011;39219;53.678;9.856;2023-02-01T06:00:38;5.22;;;0.98;;
52838;SDS011;39219;53.678;9.856;2023-02-01T06:03:04;3.78;;;0.95;;
52838;SDS011;39219;53.678;9.856;2023-02-01T06:05:30;3.10;;;1.20;;
52838;SDS011;39219;53.678;9.856;2023-02-01T06:07:56;8.13;;;1.73;;
52838;SDS011;39219;53.678;9.856;2023-02-01T06:10:23;6.18;;;1.30;;
52838;SDS011;39219;53.678;9.856;2023-02-01T06:12:50;3.47;;;1.38;;
52838;SDS011;39219;53.678;9.856;2023-02-01T06:15:17;5.82;;;1.55;;
52838;SDS011;39219;53.678;9.856;2023-02-01T06:17:44;6.22;;;1.50;;
52838;SDS011;39219;53.678;9.856;2023-02-01T06:20:11;4.50;;;1.45;;
52838;SDS011;39219;53.678;9.856;2023-02-01T06:22:38;6.07;;;1.70;;
52838;SDS011;39219;53.678;9.856;2023-02-01T06:25:05;7.00;;;1.80;;
52838;SDS011;39219;53.678;9.856;2023-02-01T06:27:32;8.55;;;2.00;;
52838;SDS011;39219;53.678;9.856;2023-02-01T06:29:59;10.68;;;1.98;;
52838;SDS011;39219;53.678;9.856;2023-02-01T06:32:26;10.13;;;2.40;;
52838;SDS011;39219;53.678;9.856;2023-02-01T06:34:52;8.10;;;2.50;;
52838;SDS011;39219;53.678;9.856;2023-02-01T06:37:18;13.15;;;2.78;;
52838;SDS011;39219;53.678;9.856;2023-02-01T06:39:45;13.70;;;2.80;;
52838;SDS011;39219;53.678;9.856;2023-02-01T06:42:11;12.23;;;2.80;;
52838;SDS011;39219;53.678;9.856;2023-02-01T06:44:38;14.43;;;2.53;;
52838;SDS011;39219;53.678;9.856;2023-02-01T06:47:05;16.63;;;2.75;;
52838;SDS011;39219;53.678;9.856;2023-02-01T06:49:32;18.20;;;3.03;;
52838;SDS011;39219;53.678;9.856;2023-02-01T06:51:58;13.77;;;3.05;;
52838;SDS011;39219;53.678;9.856;2023-02-01T06:54:25;16.98;;;3.35;;
52838;SDS011;39219;53.678;9.856;2023-02-01T06:56:51;21.27;;;3.75;;
52838;SDS011;39219;53.678;9.856;2023-02-01T06:59:17;18.27;;;3.17;;
52838;SDS011;39219;53.678;9.856;2023-02-01T07:01:44;23.38;;;3.90;;
52838;SDS011;39219;53.678;9.856;2023-02-01T07:04:11;21.45;;;4.32;;
52838;SDS011;39219;53.678;9.856;2023-02-01T07:06:38;26.08;;;4.20;;
52838;SDS011;39219;53.678;9.856;2023-02-01T07:09:04;25.30;;;3.67;;
52838;SDS011;39219;53.678;9.856;2023-02-01T07:11:31;19.90;;;3.80;;
52838;SDS011;39219;53.678;9.856;2023-02-01T07:13:57;28.90;;;4.88;;
52838;SDS011;39219;53.678;9.856;2023-02-01T07:16:23;21.00;;;4.32;;
52838;SDS011;39219;53.678;9.856;2023-02-01T07:18:50;21.90;;;4.00;;
52838;SDS011;39219;53.678;9.856;2023-02-01T07:21:18;18.63;;;3.45;;
52838;SDS011;39219;53.678;9.856;2023-02-01T07:23:44;20.35;;;3.72;;
52838;SDS011;39219;53.678;9.856;2023-02-01T07:26:12;26.55;;;3.83;;
52838;SDS011;39219;53.678;9.856;2023-02-01T07:28:38;27.00;;;4.40;;
52838;SDS011;39219;53.678;9.856;2023-02-01T07:31:05;23.67;;;3.88;;
52838;SDS011;39219;53.678;9.856;2023-02-01T07:33:32;25.70;;;3.90;;
52838;SDS011;39219;53.678;9.856;2023-02-01T07:36:00;23.75;;;3.83;;
52838;SDS011;39219;53.678;9.856;2023-02-01T07:38:27;27.33;;;4.20;;
52838;SDS011;39219;53.678;9.856;2023-02-01T07:40:56;18.92;;;3.72;;
52838;SDS011;39219;53.678;9.856;2023-02-01T07:43:22;16.25;;;3.55;;
52838;SDS011;39219;53.678;9.856;2023-02-01T07:45:50;24.02;;;4.03;;
52838;SDS011;39219;53.678;9.856;2023-02-01T07:48:16;22.85;;;4.00;;
52838;SDS011;39219;53.678;9.856;2023-02-01T07:50:43;24.35;;;4.72;;
52838;SDS011;39219;53.678;9.856;2023-02-01T07:53:09;24.77;;;4.53;;
52838;SDS011;39219;53.678;9.856;2023-02-01T07:55:38;27.45;;;4.43;;
52838;SDS011;39219;53.678;9.856;2023-02-01T07:58:04;23.05;;;4.30;;
52838;SDS011;39219;53.678;9.856;2023-02-01T08:00:31;27.38;;;4.50;;
52838;SDS011;39219;53.678;9.856;2023-02-01T08:03:15;30.20;;;5.07;;
52838;SDS011;39219;53.678;9.856;2023-02-01T08:05:41;25.65;;;4.63;;
52838;SDS011;39219;53.678;9.856;2023-02-01T08:08:07;23.10;;;4.72;;
52838;SDS011;39219;53.678;9.856;2023-02-01T08:10:34;31.42;;;4.50;;
52838;SDS011;39219;53.678;9.856;2023-02-01T08:13:02;26.33;;;4.68;;
52838;SDS011;39219;53.678;9.856;2023-02-01T08:15:29;28.55;;;4.05;;
52838;SDS011;39219;53.678;9.856;2023-02-01T08:17:55;28.13;;;4.57;;
52838;SDS011;39219;53.678;9.856;2023-02-01T08:20:22;27.67;;;4.68;;
52838;SDS011;39219;53.678;9.856;2023-02-01T08:22:48;23.30;;;4.25;;
52838;SDS011;39219;53.678;9.856;2023-02-01T08:25:15;21.70;;;4.13;;
52838;SDS011;39219;53.678;9.856;2023-02-01T08:27:41;23.45;;;4.05;;
52838;SDS011;39219;53.678;9.856;2023-02-01T08:30:09;19.50;;;4.03;;
52838;SDS011;39219;53.678;9.856;2023-02-01T08:32:36;18.67;;;3.78;;
52838;SDS011;39219;53.678;9.856;2023-02-01T08:35:02;21.02;;;3.72;;
52838;SDS011;39219;53.678;9.856;2023-02-01T08:37:29;17.98;;;3.05;;
52838;SDS011;39219;53.678;9.856;2023-02-01T08:39:55;14.88;;;3.40;;
52838;SDS011;39219;53.678;9.856;2023-02-01T08:42:22;11.50;;;2.75;;
52838;SDS011;39219;53.678;9.856;2023-02-01T08:45:06;11.85;;;2.40;;
52838;SDS011;39219;53.678;9.856;2023-02-01T08:47:35;13.27;;;2.53;;
52838;SDS011;39219;53.678;9.856;2023-02-01T08:50:01;16.85;;;2.88;;
52838;SDS011;39219;53.678;9.856;2023-02-01T08:52:27;18.20;;;2.83;;
52838;SDS011;39219;53.678;9.856;2023-02-01T08:54:53;16.95;;;3.50;;
52838;SDS011;39219;53.678;9.856;2023-02-01T08:57:20;13.70;;;3.00;;
52838;SDS011;39219;53.678;9.856;2023-02-01T08:59:46;17.10;;;3.15;;
52838;SDS011;39219;53.678;9.856;2023-02-01T09:02:12;22.05;;;3.80;;
52838;SDS011;39219;53.678;9.856;2023-02-01T09:04:40;19.77;;;3.70;;
52838;SDS011;39219;53.678;9.856;2023-02-01T09:07:07;24.08;;;3.45;;
52838;SDS011;39219;53.678;9.856;2023-02-01T09:09:33;18.58;;;3.90;;
52838;SDS011;39219;53.678;9.856;2023-02-01T09:11:59;19.42;;;4.13;;
52838;SDS011;39219;53.678;9.856;2023-02-01T09:14:26;26.10;;;4.45;;
52838;SDS011;39219;53.678;9.856;2023-02-01T09:16:52;27.40;;;4.32;;
52838;SDS011;39219;53.678;9.856;2023-02-01T09:19:19;21.35;;;4.20;;
52838;SDS011;39219;53.678;9.856;2023-02-01T09:21:46;21.30;;;3.90;;
52838;SDS011;39219;53.678;9.856;2023-02-01T09:24:12;17.95;;;4.13;;
52838;SDS011;39219;53.678;9.856;2023-02-01T09:26:39;22.45;;;4.20;;
52838;SDS011;39219;53.678;9.856;2023-02-01T09:29:05;22.33;;;4.05;;
52838;SDS011;39219;53.678;9.856;2023-02-01T09:31:35;23.70;;;4.80;;
52838;SDS011;39219;53.678;9.856;2023-02-01T09:34:02;23.83;;;4.35;;
52838;SDS011;39219;53.678;9.856;2023-02-01T09:36:28;24.00;;;4.45;;
52838;SDS011;39219;53.678;9.856;2023-02-01T09:38:56;19.60;;;3.30;;
52838;SDS011;39219;53.678;9.856;2023-02-01T09:41:25;25.13;;;4.43;;
52838;SDS011;39219;53.678;9.856;2023-02-01T09:43:54;22.35;;;3.95;;
52838;SDS011;39219;53.678;9.856;2023-02-01T09:46:23;23.52;;;4.25;;
52838;SDS011;39219;53.678;9.856;2023-02-01T09:48:52;30.02;;;4.50;;
52838;SDS011;39219;53.678;9.856;2023-02-01T09:51:20;25.95;;;4.35;;
52838;SDS011;39219;53.678;9.856;2023-02-01T09:53:51;28.10;;;4.28;;
52838;SDS011;39219;53.678;9.856;2023-02-01T09:56:22;17.73;;;3.60;;
52838;SDS011;39219;53.678;9.856;2023-02-01T09:58:51;21.35;;;4.10;;
52838;SDS011;39219;53.678;9.856;2023-02-01T10:01:21;19.88;;;4.55;;
52838;SDS011;39219;53.678;9.856;2023-02-01T10:03:51;22.02;;;4.68;;
52838;SDS011;39219;53.678;9.856;2023-02-01T10:06:26;30.98;;;5.00;;
52838;SDS011;39219;53.678;9.856;2023-02-01T10:08:57;24.23;;;4.88;;
52838;SDS011;39219;53.678;9.856;2023-02-01T10:11:31;24.17;;;4.47;;
52838;SDS011;39219;53.678;9.856;2023-02-01T10:14:13;23.38;;;4.47;;
52838;SDS011;39219;53.678;9.856;2023-02-01T10:16:43;21.77;;;4.55;;
52838;SDS011;39219;53.678;9.856;2023-02-01T10:19:20;19.77;;;3.80;;
52838;SDS011;39219;53.678;9.856;2023-02-01T10:21:54;20.80;;;3.88;;
52838;SDS011;39219;53.678;9.856;2023-02-01T10:27:07;18.77;;;3.70;;
52838;SDS011;39219;53.678;9.856;2023-02-01T10:29:36;25.35;;;4.47;;
52838;SDS011;39219;53.678;9.856;2023-02-01T10:32:07;23.10;;;4.78;;
52838;SDS011;39219;53.678;9.856;2023-02-01T10:34:36;22.45;;;3.97;;
52838;SDS011;39219;53.678;9.856;2023-02-01T10:37:07;22.95;;;4.43;;
52838;SDS011;39219;53.678;9.856;2023-02-01T10:39:36;23.23;;;4.45;;
52838;SDS011;39219;53.678;9.856;2023-02-01T10:42:04;25.27;;;4.38;;
52838;SDS011;39219;53.678;9.856;2023-02-01T10:44:30;25.90;;;5.07;;
52838;SDS011;39219;53.678;9.856;2023-02-01T10:46:57;21.65;;;4.40;;
52838;SDS011;39219;53.678;9.856;2023-02-01T10:49:24;24.52;;;4.15;;
52838;SDS011;39219;53.678;9.856;2023-02-01T10:51:52;27.58;;;4.28;;
52838;SDS011;39219;53.678;9.856;2023-02-01T10:54:21;23.50;;;4.47;;
52838;SDS011;39219;53.678;9.856;2023-02-01T10:56:49;23.70;;;4.30;;
52838;SDS011;39219;53.678;9.856;2023-02-01T10:59:17;22.40;;;4.07;;
52838;SDS011;39219;53.678;9.856;2023-02-01T11:01:44;21.73;;;4.00;;
52838;SDS011;39219;53.678;9.856;2023-02-01T11:04:11;23.08;;;4.53;;
52838;SDS011;39219;53.678;9.856;2023-02-01T11:06:39;20.13;;;4.10;;
52838;SDS011;39219;53.678;9.856;2023-02-01T11:09:10;18.77;;;3.78;;
52838;SDS011;39219;53.678;9.856;2023-02-01T11:11:52;23.02;;;4.55;;
52838;SDS011;39219;53.678;9.856;2023-02-01T11:14:25;19.75;;;4.22;;
52838;SDS011;39219;53.678;9.856;2023-02-01T11:16:53;25.67;;;4.15;;
52838;SDS011;39219;53.678;9.856;2023-02-01T11:19:20;23.55;;;3.88;;
52838;SDS011;39219;53.678;9.856;2023-02-01T11:21:48;22.50;;;3.83;;
52838;SDS011;39219;53.678;9.856;2023-02-01T11:24:16;23.85;;;4.28;;
52838;SDS011;39219;53.678;9.856;2023-02-01T11:26:46;21.05;;;3.72;;
52838;SDS011;39219;53.678;9.856;2023-02-01T11:29:12;20.67;;;3.85;;
52838;SDS011;39219;53.678;9.856;2023-02-01T11:31:40;20.92;;;3.80;;
52838;SDS011;39219;53.678;9.856;2023-02-01T11:34:08;14.85;;;3.40;;
52838;SDS011;39219;53.678;9.856;2023-02-01T11:36:36;19.90;;;3.22;;
52838;SDS011;39219;53.678;9.856;2023-02-01T11:39:08;21.10;;;4.03;;
52838;SDS011;39219;53.678;9.856;2023-02-01T11:41:35;21.45;;;3.65;;
52838;SDS011;39219;53.678;9.856;2023-02-01T11:44:15;20.25;;;3.53;;
52838;SDS011;39219;53.678;9.856;2023-02-01T11:46:45;17.08;;;3.40;;
52838;SDS011;39219;53.678;9.856;2023-02-01T11:49:20;22.02;;;3.75;;
52838;SDS011;39219;53.678;9.856;2023-02-01T11:51:49;20.20;;;3.50;;
52838;SDS011;39219;53.678;9.856;2023-02-01T11:54:25;16.27;;;3.22;;
52838;SDS011;39219;53.678;9.856;2023-02-01T11:56:59;18.33;;;3.05;;
52838;SDS011;39219;53.678;9.856;2023-02-01T11:59:32;12.50;;;3.13;;
52838;SDS011;39219;53.678;9.856;2023-02-01T12:02:11;17.98;;;3.30;;
52838;SDS011;39219;53.678;9.856;2023-02-01T12:04:50;18.90;;;3.08;;
52838;SDS011;39219;53.678;9.856;2023-02-01T12:07:23;15.10;;;2.85;;
52838;SDS011;39219;53.678;9.856;2023-02-01T12:09:55;17.48;;;2.92;;
52838;SDS011;39219;53.678;9.856;2023-02-01T12:12:28;14.90;;;3.50;;
52838;SDS011;39219;53.678;9.856;2023-02-01T12:15:17;19.58;;;3.08;;
52838;SDS011;39219;53.678;9.856;2023-02-01T12:20:50;15.85;;;3.60;;
52838;SDS011;39219;53.678;9.856;2023-02-01T12:23:25;14.10;;;3.25;;
52838;SDS011;39219;53.678;9.856;2023-02-01T12:26:00;15.52;;;3.00;;
52838;SDS011;39219;53.678;9.856;2023-02-01T12:28:42;12.00;;;2.40;;
52838;SDS011;39219;53.678;9.856;2023-02-01T12:31:15;10.98;;;2.70;;
52838;SDS011;39219;53.678;9.856;2023-02-01T12:33:52;7.15;;;1.85;;
52838;SDS011;39219;53.678;9.856;2023-02-01T12:36:24;10.38;;;1.98;;
52838;SDS011;39219;53.678;9.856;2023-02-01T12:38:53;9.77;;;1.80;;
52838;SDS011;39219;53.678;9.856;2023-02-01T12:41:24;6.32;;;1.30;;
52838;SDS011;39219;53.678;9.856;2023-02-01T12:43:53;3.60;;;0.90;;
52838;SDS011;39219;53.678;9.856;2023-02-01T12:46:21;4.47;;;1.27;;
52838;SDS011;39219;53.678;9.856;2023-02-01T12:48:52;4.40;;;1.05;;
52838;SDS011;39219;53.678;9.856;2023-02-01T12:51:21;3.97;;;0.90;;
52838;SDS011;39219;53.678;9.856;2023-02-01T12:53:51;3.00;;;0.85;;
52838;SDS011;39219;53.678;9.856;2023-02-01T12:56:21;2.88;;;0.90;;
52838;SDS011;39219;53.678;9.856;2023-02-01T12:58:48;3.50;;;1.02;;
52838;SDS011;39219;53.678;9.856;2023-02-01T13:01:17;5.85;;;1.58;;
52838;SDS011;39219;53.678;9.856;2023-02-01T13:03:48;7.30;;;1.70;;
52838;SDS011;39219;53.678;9.856;2023-02-01T13:06:16;5.30;;;1.55;;
52838;SDS011;39219;53.678;9.856;2023-02-01T13:08:43;5.50;;;1.50;;
52838;SDS011;39219;53.678;9.856;2023-02-01T13:11:15;7.20;;;1.80;;
52838;SDS011;39219;53.678;9.856;2023-02-01T13:13:45;3.70;;;1.83;;
52838;SDS011;39219;53.678;9.856;2023-02-01T13:16:14;4.47;;;1.52;;
52838;SDS011;39219;53.678;9.856;2023-02-01T13:18:41;5.82;;;1.30;;
52838;SDS011;39219;53.678;9.856;2023-02-01T13:21:10;5.55;;;1.50;;
52838;SDS011;39219;53.678;9.856;2023-02-01T13:23:39;5.43;;;1.30;;
52838;SDS011;39219;53.678;9.856;2023-02-01T13:26:06;3.90;;;1.20;;
52838;SDS011;39219;53.678;9.856;2023-02-01T13:28:36;5.03;;;1.15;;
52838;SDS011;39219;53.678;9.856;2023-02-01T13:31:14;4.30;;;1.27;;
52838;SDS011;39219;53.678;9.856;2023-02-01T13:33:48;5.75;;;1.52;;
52838;SDS011;39219;53.678;9.856;2023-02-01T13:36:23;4.63;;;1.30;;
52838;SDS011;39219;53.678;9.856;2023-02-01T13:39:09;5.25;;;0.82;;
52838;SDS011;39219;53.678;9.856;2023-02-01T13:41:41;5.20;;;1.10;;
52838;SDS011;39219;53.678;9.856;2023-02-01T13:44:12;7.70;;;1.13;;
52838;SDS011;39219;53.678;9.856;2023-02-01T13:46:39;6.13;;;1.40;;
52838;SDS011;39219;53.678;9.856;2023-02-01T13:49:13;4.78;;;1.05;;
52838;SDS011;39219;53.678;9.856;2023-02-01T13:51:42;5.47;;;1.10;;
52838;SDS011;39219;53.678;9.856;2023-02-01T13:54:23;4.60;;;0.95;;
52838;SDS011;39219;53.678;9.856;2023-02-01T13:56:50;6.35;;;1.20;;
52838;SDS011;39219;53.678;9.856;2023-02-01T14:04:47;5.68;;;1.25;;
52838;SDS011;39219;53.678;9.856;2023-02-01T14:07:18;6.95;;;1.30;;
52838;SDS011;39219;53.678;9.856;2023-02-01T14:09:45;9.95;;;1.80;;
52838;SDS011;39219;53.678;9.856;2023-02-01T14:15:00;32.85;;;9.25;;
52838;SDS011;39219;53.678;9.856;2023-02-01T14:17:42;4.95;;;1.45;;
52838;SDS011;39219;53.678;9.856;2023-02-01T14:23:01;10.60;;;2.08;;
52838;SDS011;39219;53.678;9.856;2023-02-01T14:25:31;10.75;;;1.88;;
52838;SDS011;39219;53.678;9.856;2023-02-01T14:27:58;13.57;;;2.45;;
52838;SDS011;39219;53.678;9.856;2023-02-01T14:30:24;13.90;;;2.00;;
52838;SDS011;39219;53.678;9.856;2023-02-01T14:32:50;11.00;;;2.08;;
52838;SDS011;39219;53.678;9.856;2023-02-01T14:35:18;6.30;;;1.60;;
52838;SDS011;39219;53.678;9.856;2023-02-01T14:37:45;6.55;;;1.50;;
52838;SDS011;39219;53.678;9.856;2023-02-01T14:40:16;9.93;;;1.77;;
52838;SDS011;39219;53.678;9.856;2023-02-01T14:42:45;4.05;;;1.02;;
52838;SDS011;39219;53.678;9.856;2023-02-01T14:45:46;7.95;;;1.40;;
52838;SDS011;39219;53.678;9.856;2023-02-01T14:50:59;4.50;;;0.90;;
52838;SDS011;39219;53.678;9.856;2023-02-01T14:53:27;9.75;;;1.50;;
52838;SDS011;39219;53.678;9.856;2023-02-01T14:55:59;7.80;;;1.70;;
52838;SDS011;39219;53.678;9.856;2023-02-01T14:58:32;8.98;;;2.03;;
52838;SDS011;39219;53.678;9.856;2023-02-01T15:01:01;11.40;;;1.92;;
52838;SDS011;39219;53.678;9.856;2023-02-01T15:03:33;10.77;;;2.10;;
52838;SDS011;39219;53.678;9.856;2023-02-01T15:06:00;11.15;;;2.15;;
52838;SDS011;39219;53.678;9.856;2023-02-01T15:08:31;8.82;;;2.42;;
52838;SDS011;39219;53.678;9.856;2023-02-01T15:11:00;14.90;;;2.60;;
52838;SDS011;39219;53.678;9.856;2023-02-01T15:13:28;16.77;;;2.78;;